Waco, Kentucky
Current Conditions -  °F | °C
As of 11:55 AM on Saturday 25 Oct 2014 (Local Time) from KI39 Reporting Station
Overcast Overcast  
Wind Chill: 59°   Ceiling: 4000
Heat Index: 59°   Visibility: 10mi
Dew Point: 50°   Wind: 7mph
Humidity: 72%   Direction: 200°SSW
Pressure: 30.06"   Gusts: NA
Location:  37.74°N, 84.14°W
Report Text: KI39 251555Z AUTO 20006KT 10SM SCT028 OVC040 15/10 A3006 RMK AO2
Loading
Personal Weather Stations






























Interactive Weather Map
Tropical Storm Tracking
New forecast layout! Learn more

10-Day Weather Forecast

Advertisements
Track Severe Weather on mobile